Time;durP1;ratioP1;P1;durP2;ratioP2;P2;SDS_P1;SDS_P2;PMS_P1;PMS_P2;Temp;Humidity;BMP_temperature;BMP_pressure;BME280_temperature;BME280_humidity;BME280_pressure;Samples;Min_cycle;Max_cycle;Signal;HPM_P1;HPM_P2
2022/01/24 00:02:01;;;;;;;2.22;1.20;;;;;;;;;;6249386;28;20049;-81
2022/01/24 00:05:03;;;;;;;2.63;1.60;;;;;;;;;;6263488;28;20060;-78
2022/01/24 00:08:05;;;;;;;2.25;1.90;;;;;;;;;;6250460;28;20051;-81
2022/01/24 00:11:12;;;;;;;2.22;1.63;;;;;;;;;;6264923;28;20044;-82
2022/01/24 00:15:07;;;;;;;3.10;1.77;;;;;;;;;;6267366;28;20126;-82
2022/01/24 00:17:48;;;;;;;1.90;1.40;;;;;;;;;;6258720;28;20124;-82
2022/01/24 00:27:31;;;;;;;2.30;1.55;;;;;;;;;;6262851;28;20579;-82
2022/01/24 00:30:33;;;;;;;2.65;1.77;;;;;;;;;;6270352;28;20525;-79
2022/01/24 00:33:35;;;;;;;1.60;1.50;;;;;;;;;;6274139;28;20044;-80
2022/01/24 00:36:38;;;;;;;2.25;1.77;;;;;;;;;;6251320;28;20049;-80
2022/01/24 00:39:39;;;;;;;2.17;1.55;;;;;;;;;;6265415;28;20052;-81
2022/01/24 00:42:51;;;;;;;3.88;1.90;;;;;;;;;;6267147;28;20194;-81
2022/01/24 00:55:28;;;;;;;3.90;2.03;;;;;;;;;;6264458;28;20508;-81
2022/01/24 00:58:30;;;;;;;1.60;1.45;;;;;;;;;;6265749;28;20048;-80
2022/01/24 01:01:31;;;;;;;1.73;1.30;;;;;;;;;;6265939;28;20467;-82
2022/01/24 01:24:16;;;;;;;1.27;1.00;;;;;;;;;;6264874;28;20067;-82
2022/01/24 01:27:24;;;;;;;1.55;1.45;;;;;;;;;;6230935;28;20052;-82
2022/01/24 01:30:36;;;;;;;2.40;0.90;;;;;;;;;;6245946;28;20055;-79
2022/01/24 01:33:56;;;;;;;0.85;0.85;;;;;;;;;;6261014;28;20047;-79
2022/01/24 01:56:41;;;;;;;2.60;1.25;;;;;;;;;;6266557;28;20422;-82
2022/01/24 01:59:43;;;;;;;1.67;1.27;;;;;;;;;;6266673;28;20059;-83
2022/01/24 02:02:47;;;;;;;2.00;1.40;;;;;;;;;;6263713;28;20045;-79
2022/01/24 02:05:49;;;;;;;2.30;1.30;;;;;;;;;;6264308;28;20147;-83
2022/01/24 02:09:17;;;;;;;2.33;1.45;;;;;;;;;;6276084;28;20044;-80
2022/01/24 02:12:23;;;;;;;1.48;1.10;;;;;;;;;;6284158;28;20108;-78
2022/01/24 02:15:35;;;;;;;1.20;1.10;;;;;;;;;;6287903;28;20079;-80
2022/01/24 02:24:52;;;;;;;1.20;1.10;;;;;;;;;;6287204;28;20036;-79
2022/01/24 02:27:57;;;;;;;2.50;1.60;;;;;;;;;;6269130;28;20044;-81
2022/01/24 02:31:22;;;;;;;2.17;1.63;;;;;;;;;;6269333;28;20440;-78
2022/01/24 02:34:29;;;;;;;2.90;1.40;;;;;;;;;;6269880;28;20116;-80
2022/01/24 02:37:31;;;;;;;1.65;1.20;;;;;;;;;;6264867;28;20048;-80
2022/01/24 02:40:33;;;;;;;1.98;1.60;;;;;;;;;;6271265;28;20041;-81
2022/01/24 02:50:05;;;;;;;2.38;1.40;;;;;;;;;;6271388;28;20128;-80
2022/01/24 02:53:07;;;;;;;2.72;1.50;;;;;;;;;;6268899;28;20053;-78
2022/01/24 02:56:08;;;;;;;2.15;1.48;;;;;;;;;;6268708;28;20045;-79
2022/01/24 02:59:10;;;;;;;2.25;1.55;;;;;;;;;;6287894;28;20105;-80
2022/01/24 03:02:12;;;;;;;2.28;1.70;;;;;;;;;;6270232;28;20047;-81
2022/01/24 03:05:14;;;;;;;3.30;2.13;;;;;;;;;;6271512;28;20048;-82
2022/01/24 03:08:16;;;;;;;1.80;1.50;;;;;;;;;;6252911;28;20113;-80
2022/01/24 03:11:17;;;;;;;2.75;1.75;;;;;;;;;;6267883;28;20151;-78
2022/01/24 03:14:22;;;;;;;3.53;2.40;;;;;;;;;;6245572;28;20690;-80
2022/01/24 03:17:24;;;;;;;2.92;2.10;;;;;;;;;;6270271;28;20059;-79
2022/01/24 03:20:26;;;;;;;2.67;2.05;;;;;;;;;;6268856;28;20493;-78
2022/01/24 03:23:28;;;;;;;2.20;1.92;;;;;;;;;;6285029;28;20417;-82
2022/01/24 03:26:30;;;;;;;2.75;2.00;;;;;;;;;;6286101;28;20129;-81
2022/01/24 03:29:33;;;;;;;1.83;1.50;;;;;;;;;;6269705;28;20044;-80
2022/01/24 03:32:34;;;;;;;3.47;2.15;;;;;;;;;;6286048;28;20114;-78
2022/01/24 03:35:36;;;;;;;2.30;2.08;;;;;;;;;;6273475;28;20063;-82
2022/01/24 03:38:38;;;;;;;3.58;2.25;;;;;;;;;;6276978;28;20056;-80
2022/01/24 03:41:40;;;;;;;3.42;2.53;;;;;;;;;;6271237;28;20757;-81
2022/01/24 03:44:44;;;;;;;2.72;2.20;;;;;;;;;;6269166;28;20059;-80
2022/01/24 03:48:50;;;;;;;2.72;2.17;;;;;;;;;;6260447;28;20044;-80
2022/01/24 03:51:19;;;;;;;3.70;2.53;;;;;;;;;;6249577;28;20067;-82
2022/01/24 03:54:20;;;;;;;3.60;1.98;;;;;;;;;;6286142;28;20059;-81
2022/01/24 03:57:22;;;;;;;2.75;2.20;;;;;;;;;;6268728;28;20055;-82
2022/01/24 04:00:24;;;;;;;2.17;1.98;;;;;;;;;;6285251;28;20063;-81
2022/01/24 04:03:26;;;;;;;5.13;2.00;;;;;;;;;;6268950;28;20041;-83
2022/01/24 04:06:27;;;;;;;2.35;1.83;;;;;;;;;;6286498;28;20154;-82
2022/01/24 04:09:29;;;;;;;2.38;2.03;;;;;;;;;;6269980;28;20105;-78
2022/01/24 04:12:31;;;;;;;2.33;1.80;;;;;;;;;;6269134;28;20124;-81
2022/01/24 04:22:48;;;;;;;2.67;2.10;;;;;;;;;;6259501;28;20049;-80
2022/01/24 04:25:50;;;;;;;1.75;1.60;;;;;;;;;;6285050;28;20159;-78
2022/01/24 04:28:51;;;;;;;2.20;1.85;;;;;;;;;;6269787;28;20051;-81
2022/01/24 04:31:54;;;;;;;2.67;2.05;;;;;;;;;;6269154;28;20413;-82
2022/01/24 04:34:55;;;;;;;2.42;1.83;;;;;;;;;;6256194;28;20044;-82
2022/01/24 04:37:57;;;;;;;2.20;1.80;;;;;;;;;;6266210;28;20587;-80
2022/01/24 04:41:03;;;;;;;3.53;2.15;;;;;;;;;;6238408;28;20513;-79
2022/01/24 04:54:04;;;;;;;2.70;1.80;;;;;;;;;;6270542;28;20140;-79
2022/01/24 04:57:08;;;;;;;2.55;2.00;;;;;;;;;;6250881;28;20057;-82
2022/01/24 05:00:10;;;;;;;2.78;2.03;;;;;;;;;;6251126;28;20678;-82
2022/01/24 05:03:12;;;;;;;4.50;2.17;;;;;;;;;;6283187;28;20049;-80
2022/01/24 05:06:14;;;;;;;2.85;1.45;;;;;;;;;;6267103;28;20045;-82
2022/01/24 05:09:17;;;;;;;2.67;1.58;;;;;;;;;;6268598;28;20094;-83
2022/01/24 05:21:23;;;;;;;3.00;2.05;;;;;;;;;;6265337;28;20044;-82
2022/01/24 05:25:57;;;;;;;2.13;1.40;;;;;;;;;;6264012;28;20051;-81
2022/01/24 05:28:59;;;;;;;2.13;1.63;;;;;;;;;;6278891;28;20227;-82
2022/01/24 05:32:01;;;;;;;2.05;1.67;;;;;;;;;;6264174;28;20045;-81
2022/01/24 05:35:03;;;;;;;2.60;1.90;;;;;;;;;;6262610;28;20056;-81
2022/01/24 05:38:05;;;;;;;1.90;1.50;;;;;;;;;;6262921;28;20041;-80
2022/01/24 05:41:06;;;;;;;2.25;1.65;;;;;;;;;;6245912;28;20437;-80
2022/01/24 05:44:08;;;;;;;2.15;1.50;;;;;;;;;;6262123;28;20051;-82
2022/01/24 05:47:10;;;;;;;2.28;1.35;;;;;;;;;;6268048;28;20067;-80
2022/01/24 05:50:12;;;;;;;2.97;1.88;;;;;;;;;;6285174;28;20055;-83
2022/01/24 05:53:13;;;;;;;1.98;1.45;;;;;;;;;;6269432;28;20047;-80
2022/01/24 05:56:17;;;;;;;1.83;1.40;;;;;;;;;;6250428;28;20494;-82
2022/01/24 05:59:18;;;;;;;2.47;1.40;;;;;;;;;;6283870;28;20045;-79
2022/01/24 06:02:20;;;;;;;1.83;1.50;;;;;;;;;;6250429;28;20056;-79
2022/01/24 06:05:22;;;;;;;2.22;1.60;;;;;;;;;;6284852;28;20260;-83
2022/01/24 06:08:23;;;;;;;2.20;1.73;;;;;;;;;;6267666;28;20049;-83
2022/01/24 06:11:26;;;;;;;2.28;1.65;;;;;;;;;;6272494;28;20049;-81
2022/01/24 06:14:28;;;;;;;6.88;3.47;;;;;;;;;;6284398;28;20170;-82
2022/01/24 06:17:30;;;;;;;3.30;2.65;;;;;;;;;;6242431;28;20030;-82
2022/01/24 06:20:31;;;;;;;2.50;2.17;;;;;;;;;;6253336;28;20120;-81
2022/01/24 06:23:33;;;;;;;3.05;2.38;;;;;;;;;;6269582;28;20044;-79
2022/01/24 06:26:35;;;;;;;2.10;1.67;;;;;;;;;;6266987;28;20151;-81
2022/01/24 06:29:36;;;;;;;2.47;2.03;;;;;;;;;;6269931;28;20047;-80
2022/01/24 06:32:39;;;;;;;2.10;1.70;;;;;;;;;;6267738;28;20122;-79
2022/01/24 06:35:40;;;;;;;5.23;3.70;;;;;;;;;;6283549;28;20571;-80
2022/01/24 06:38:42;;;;;;;4.80;3.03;;;;;;;;;;6251536;28;20140;-79
2022/01/24 06:41:51;;;;;;;2.75;2.40;;;;;;;;;;6268252;28;20044;-82
2022/01/24 06:44:54;;;;;;;4.53;2.97;;;;;;;;;;6253039;28;20773;-80
2022/01/24 06:47:56;;;;;;;3.60;2.50;;;;;;;;;;6255129;28;20041;-83
2022/01/24 06:50:57;;;;;;;4.07;2.30;;;;;;;;;;6266465;28;20132;-82
2022/01/24 06:53:59;;;;;;;2.92;1.95;;;;;;;;;;6283458;28;20093;-79
2022/01/24 06:57:02;;;;;;;2.58;1.85;;;;;;;;;;6282236;28;20128;-80
2022/01/24 07:00:05;;;;;;;2.00;1.80;;;;;;;;;;6265782;28;20041;-82
2022/01/24 07:03:07;;;;;;;3.08;2.05;;;;;;;;;;6283233;28;20118;-81
2022/01/24 07:06:08;;;;;;;2.17;1.67;;;;;;;;;;6268969;28;20040;-82
2022/01/24 07:09:10;;;;;;;3.63;2.80;;;;;;;;;;6267278;28;20041;-81
2022/01/24 07:12:12;;;;;;;3.13;1.80;;;;;;;;;;6268281;28;20082;-83
2022/01/24 07:15:16;;;;;;;2.53;1.92;;;;;;;;;;6269049;28;20045;-82
2022/01/24 07:21:29;;;;;;;3.05;2.10;;;;;;;;;;6283551;28;20067;-80
2022/01/24 07:24:31;;;;;;;3.58;2.13;;;;;;;;;;6268694;28;20048;-82
2022/01/24 07:27:32;;;;;;;2.50;2.00;;;;;;;;;;6267737;28;20048;-82
2022/01/24 07:30:34;;;;;;;1.83;1.63;;;;;;;;;;6267020;28;20084;-81
2022/01/24 07:33:36;;;;;;;3.92;1.75;;;;;;;;;;6270063;28;20045;-80
2022/01/24 07:36:37;;;;;;;2.35;1.60;;;;;;;;;;6268886;28;20066;-81
2022/01/24 07:39:39;;;;;;;2.65;1.67;;;;;;;;;;6250571;28;20048;-80
2022/01/24 07:43:08;;;;;;;24.00;8.18;;;;;;;;;;6269197;28;20048;-81
2022/01/24 07:46:10;;;;;;;2.78;1.77;;;;;;;;;;6268725;28;20104;-79
2022/01/24 07:49:13;;;;;;;1.65;1.48;;;;;;;;;;6282871;28;20048;-79
2022/01/24 07:52:14;;;;;;;3.63;1.90;;;;;;;;;;6283873;28;20383;-82
2022/01/24 07:55:16;;;;;;;2.03;1.70;;;;;;;;;;6271013;28;20466;-80
2022/01/24 07:58:18;;;;;;;2.05;1.55;;;;;;;;;;6271035;28;20049;-81
2022/01/24 08:01:19;;;;;;;2.00;1.55;;;;;;;;;;6288057;28;20097;-79
2022/01/24 08:04:21;;;;;;;2.65;2.00;;;;;;;;;;6269528;28;20067;-79
2022/01/24 08:07:23;;;;;;;3.30;1.92;;;;;;;;;;6251766;28;20052;-81
2022/01/24 08:10:24;;;;;;;3.08;1.80;;;;;;;;;;6249847;28;20041;-82
2022/01/24 08:13:26;;;;;;;4.95;2.40;;;;;;;;;;6251143;28;20051;-79
2022/01/24 08:16:28;;;;;;;3.95;2.25;;;;;;;;;;6267020;28;20509;-82
2022/01/24 08:19:35;;;;;;;2.28;1.98;;;;;;;;;;6284248;28;20037;-79
2022/01/24 08:22:37;;;;;;;2.83;2.20;;;;;;;;;;6270121;28;20055;-80
2022/01/24 08:25:40;;;;;;;5.70;4.43;;;;;;;;;;6282008;28;20037;-82
2022/01/24 08:28:42;;;;;;;2.58;2.30;;;;;;;;;;6268694;28;20063;-82
2022/01/24 08:31:43;;;;;;;1.85;1.67;;;;;;;;;;6266896;28;20151;-81
2022/01/24 08:34:45;;;;;;;2.63;1.73;;;;;;;;;;6265918;28;20552;-80
2022/01/24 08:38:04;;;;;;;2.13;1.63;;;;;;;;;;6267769;28;20037;-82
2022/01/24 08:41:17;;;;;;;2.47;1.90;;;;;;;;;;6264311;28;20059;-80
2022/01/24 08:44:32;;;;;;;3.70;1.77;;;;;;;;;;6250433;28;20600;-80
2022/01/24 08:47:37;;;;;;;2.28;1.88;;;;;;;;;;6281861;28;20545;-82
2022/01/24 08:50:47;;;;;;;3.70;1.92;;;;;;;;;;6269614;28;20049;-80
2022/01/24 08:53:48;;;;;;;2.17;1.45;;;;;;;;;;6241250;28;20287;-79
2022/01/24 08:56:51;;;;;;;2.00;1.80;;;;;;;;;;6283438;28;20041;-78
2022/01/24 08:59:53;;;;;;;2.65;1.90;;;;;;;;;;6268390;28;20048;-80
2022/01/24 09:02:55;;;;;;;2.57;1.80;;;;;;;;;;6262503;28;20041;-80
2022/01/24 09:05:59;;;;;;;3.22;2.47;;;;;;;;;;6282973;28;20051;-78
2022/01/24 09:09:02;;;;;;;2.63;1.70;;;;;;;;;;6269312;28;20482;-82
2022/01/24 09:12:06;;;;;;;2.10;1.80;;;;;;;;;;6278416;28;20098;-81
2022/01/24 09:15:08;;;;;;;6.97;3.47;;;;;;;;;;6265810;28;20123;-79
2022/01/24 09:18:12;;;;;;;5.15;2.28;;;;;;;;;;6282061;28;20056;-81
2022/01/24 09:21:14;;;;;;;4.82;2.70;;;;;;;;;;6266072;28;20171;-82
2022/01/24 09:24:16;;;;;;;4.32;2.78;;;;;;;;;;6260066;28;20068;-82
2022/01/24 09:27:17;;;;;;;2.88;2.38;;;;;;;;;;6265888;28;20067;-81
2022/01/24 09:30:21;;;;;;;2.17;1.98;;;;;;;;;;6282491;28;20053;-79
2022/01/24 09:33:24;;;;;;;3.28;2.10;;;;;;;;;;6272077;28;20125;-81
2022/01/24 09:36:26;;;;;;;2.45;2.20;;;;;;;;;;6275292;28;20057;-80
2022/01/24 09:39:27;;;;;;;2.78;2.25;;;;;;;;;;6275534;28;20150;-78
2022/01/24 09:42:49;;;;;;;3.15;2.40;;;;;;;;;;6241672;28;20126;-81
2022/01/24 09:45:51;;;;;;;3.75;2.58;;;;;;;;;;6244329;28;20128;-81
2022/01/24 09:48:55;;;;;;;3.97;2.30;;;;;;;;;;6282844;28;20049;-82
2022/01/24 09:51:57;;;;;;;3.47;2.15;;;;;;;;;;6284452;28;20047;-79
2022/01/24 09:55:00;;;;;;;3.17;2.53;;;;;;;;;;6267963;28;20049;-83
2022/01/24 09:58:02;;;;;;;2.90;2.20;;;;;;;;;;6250126;28;20121;-83
2022/01/24 10:01:06;;;;;;;2.75;2.30;;;;;;;;;;6261622;28;20050;-82
2022/01/24 10:04:17;;;;;;;3.38;2.25;;;;;;;;;;6270341;28;20524;-81
2022/01/24 10:07:19;;;;;;;2.53;1.70;;;;;;;;;;6269214;28;20132;-82
2022/01/24 10:10:30;;;;;;;2.63;2.30;;;;;;;;;;6269998;28;20163;-82
2022/01/24 10:17:15;;;;;;;3.13;2.13;;;;;;;;;;6267914;28;20039;-79
2022/01/24 10:20:25;;;;;;;2.35;2.15;;;;;;;;;;6267496;28;20127;-80
2022/01/24 10:23:26;;;;;;;2.38;1.65;;;;;;;;;;6262992;28;20048;-79
2022/01/24 10:26:33;;;;;;;2.45;1.88;;;;;;;;;;6265602;28;20099;-78
2022/01/24 10:29:40;;;;;;;3.30;1.83;;;;;;;;;;6284905;28;20733;-80
2022/01/24 10:32:49;;;;;;;2.88;1.92;;;;;;;;;;6270512;28;20045;-81
2022/01/24 10:35:56;;;;;;;3.80;2.40;;;;;;;;;;6271899;28;20040;-80
2022/01/24 10:39:09;;;;;;;2.17;1.98;;;;;;;;;;6254413;28;20053;-78
2022/01/24 10:45:31;;;;;;;3.35;2.70;;;;;;;;;;6270247;28;20064;-81
2022/01/24 10:48:41;;;;;;;3.08;2.63;;;;;;;;;;6276563;28;20124;-80
2022/01/24 10:51:47;;;;;;;3.13;2.30;;;;;;;;;;6268599;28;20041;-80
2022/01/24 10:55:09;;;;;;;2.00;1.67;;;;;;;;;;6271016;28;20045;-80
2022/01/24 10:58:14;;;;;;;3.90;3.13;;;;;;;;;;6246330;28;20045;-79
2022/01/24 11:01:21;;;;;;;5.97;3.85;;;;;;;;;;6260917;28;20067;-82
2022/01/24 11:04:28;;;;;;;5.05;3.63;;;;;;;;;;6287194;28;20056;-79
2022/01/24 11:07:30;;;;;;;3.95;2.42;;;;;;;;;;6270869;28;20087;-82
2022/01/24 11:10:41;;;;;;;2.05;1.85;;;;;;;;;;6264737;28;20111;-78
2022/01/24 11:13:43;;;;;;;3.20;2.72;;;;;;;;;;6270090;28;20463;-82
2022/01/24 11:16:46;;;;;;;3.28;2.22;;;;;;;;;;6268592;28;20131;-81
2022/01/24 11:19:55;;;;;;;2.72;2.20;;;;;;;;;;6271545;28;20110;-79
2022/01/24 11:23:04;;;;;;;3.08;2.00;;;;;;;;;;6270315;28;20040;-81
2022/01/24 11:26:07;;;;;;;3.25;2.33;;;;;;;;;;6286943;28;20051;-81
2022/01/24 11:29:10;;;;;;;3.45;2.10;;;;;;;;;;6272334;28;20076;-80
2022/01/24 11:32:22;;;;;;;2.50;1.80;;;;;;;;;;6271677;28;20385;-81
2022/01/24 11:35:41;;;;;;;2.25;1.90;;;;;;;;;;6287624;28;20466;-81
2022/01/24 11:38:44;;;;;;;2.53;1.77;;;;;;;;;;6273149;28;20470;-78
2022/01/24 11:41:47;;;;;;;3.40;2.00;;;;;;;;;;6253946;28;20132;-81
2022/01/24 11:44:50;;;;;;;1.85;1.70;;;;;;;;;;6271298;28;20041;-80
2022/01/24 11:48:13;;;;;;;3.75;1.88;;;;;;;;;;6255449;28;20049;-77
2022/01/24 11:51:16;;;;;;;6.38;3.75;;;;;;;;;;6252906;28;20041;-78
2022/01/24 11:54:32;;;;;;;2.53;1.80;;;;;;;;;;6249895;28;20112;-82
2022/01/24 11:57:38;;;;;;;7.47;4.20;;;;;;;;;;6262532;28;20045;-81
2022/01/24 12:00:44;;;;;;;5.47;2.60;;;;;;;;;;6268578;28;20078;-81
2022/01/24 12:03:51;;;;;;;3.58;2.65;;;;;;;;;;6267536;28;20041;-81
2022/01/24 12:07:19;;;;;;;3.50;2.85;;;;;;;;;;6269008;28;20052;-80
2022/01/24 12:10:37;;;;;;;8.68;5.00;;;;;;;;;;6268145;28;20045;-80
2022/01/24 12:13:51;;;;;;;5.15;2.80;;;;;;;;;;6268292;28;20502;-80
2022/01/24 12:16:54;;;;;;;7.30;3.42;;;;;;;;;;6270776;28;20150;-81
2022/01/24 12:19:56;;;;;;;9.73;4.45;;;;;;;;;;6268008;28;20504;-79
2022/01/24 12:22:59;;;;;;;7.60;3.65;;;;;;;;;;6283853;28;20056;-80
2022/01/24 12:26:07;;;;;;;7.15;4.07;;;;;;;;;;6282291;28;20098;-81
2022/01/24 12:29:27;;;;;;;11.65;4.95;;;;;;;;;;6251680;28;20076;-80
2022/01/24 12:32:29;;;;;;;14.57;5.78;;;;;;;;;;6283754;28;20179;-78
2022/01/24 12:35:30;;;;;;;9.27;5.70;;;;;;;;;;6268759;28;20325;-81
2022/01/24 12:38:50;;;;;;;7.22;3.88;;;;;;;;;;6268822;28;20400;-81
2022/01/24 12:42:01;;;;;;;6.93;4.40;;;;;;;;;;6264721;28;20053;-81
2022/01/24 12:48:36;;;;;;;5.32;2.97;;;;;;;;;;6262993;28;20126;-80
2022/01/24 12:51:37;;;;;;;4.80;2.78;;;;;;;;;;6286256;28;20045;-81
2022/01/24 12:54:43;;;;;;;3.88;2.55;;;;;;;;;;6266991;28;20505;-81
2022/01/24 12:57:45;;;;;;;4.47;2.53;;;;;;;;;;6269296;28;20374;-79
2022/01/24 13:00:47;;;;;;;3.20;2.63;;;;;;;;;;6269320;28;20037;-80
2022/01/24 13:03:56;;;;;;;3.97;2.80;;;;;;;;;;6249866;28;20068;-80
2022/01/24 13:06:58;;;;;;;3.50;2.30;;;;;;;;;;6266952;28;20056;-81
2022/01/24 13:10:16;;;;;;;4.18;2.72;;;;;;;;;;6268543;28;20048;-82
2022/01/24 13:13:19;;;;;;;4.55;2.80;;;;;;;;;;6243602;28;20110;-82
2022/01/24 13:23:08;;;;;;;6.13;4.20;;;;;;;;;;6269321;28;20489;-80
2022/01/24 13:26:11;;;;;;;6.55;3.60;;;;;;;;;;6283174;28;20116;-81
2022/01/24 13:29:13;;;;;;;7.93;4.20;;;;;;;;;;6268089;28;20488;-79
2022/01/24 13:32:14;;;;;;;12.07;5.38;;;;;;;;;;6272778;28;20052;-78
2022/01/24 13:35:41;;;;;;;5.78;4.47;;;;;;;;;;6274482;28;20097;-81
2022/01/24 13:38:48;;;;;;;4.85;3.55;;;;;;;;;;6267477;28;20047;-82
2022/01/24 13:41:50;;;;;;;9.63;4.68;;;;;;;;;;6270057;28;20107;-81
2022/01/24 13:44:51;;;;;;;5.90;4.32;;;;;;;;;;6270982;28;20133;-80
2022/01/24 13:47:57;;;;;;;5.93;3.08;;;;;;;;;;6270782;28;20086;-81
2022/01/24 13:50:59;;;;;;;5.95;3.03;;;;;;;;;;6272573;28;20041;-80
2022/01/24 13:54:03;;;;;;;5.18;2.80;;;;;;;;;;6269097;28;20053;-81
2022/01/24 13:57:08;;;;;;;5.95;2.67;;;;;;;;;;6285509;28;20044;-78
2022/01/24 14:00:11;;;;;;;7.45;3.20;;;;;;;;;;6250693;28;20127;-80
2022/01/24 14:03:12;;;;;;;4.47;3.10;;;;;;;;;;6284109;28;20048;-79
2022/01/24 14:06:24;;;;;;;4.32;3.20;;;;;;;;;;6284199;28;20068;-80
2022/01/24 14:09:49;;;;;;;4.53;2.88;;;;;;;;;;6272984;28;20052;-80
2022/01/24 14:12:54;;;;;;;8.38;2.95;;;;;;;;;;6278395;28;20040;-78
2022/01/24 14:16:03;;;;;;;4.05;2.45;;;;;;;;;;6280420;28;20064;-80
2022/01/24 14:19:05;;;;;;;3.90;2.83;;;;;;;;;;6275368;28;20111;-79
2022/01/24 14:22:10;;;;;;;4.57;2.90;;;;;;;;;;6257100;28;20041;-80
2022/01/24 14:25:13;;;;;;;4.43;3.28;;;;;;;;;;6275150;28;20095;-78
2022/01/24 14:28:15;;;;;;;7.07;4.00;;;;;;;;;;6267457;28;20124;-80
2022/01/24 14:31:22;;;;;;;5.13;3.80;;;;;;;;;;6255889;28;20128;-79
2022/01/24 14:34:28;;;;;;;5.47;3.17;;;;;;;;;;6266208;28;20506;-81
2022/01/24 14:37:47;;;;;;;9.55;4.38;;;;;;;;;;6273246;28;20131;-79
2022/01/24 14:40:51;;;;;;;7.35;3.78;;;;;;;;;;6290116;28;20053;-79
2022/01/24 14:47:16;;;;;;;7.40;4.70;;;;;;;;;;6259163;28;20061;-82
2022/01/24 14:50:18;;;;;;;6.97;3.90;;;;;;;;;;6272513;28;20056;-80
2022/01/24 14:53:28;;;;;;;8.23;3.60;;;;;;;;;;6275052;28;20098;-80
2022/01/24 14:56:30;;;;;;;5.07;3.28;;;;;;;;;;6273163;28;20139;-81
2022/01/24 14:59:33;;;;;;;6.87;3.83;;;;;;;;;;6279647;28;20104;-81
2022/01/24 15:02:35;;;;;;;8.27;4.75;;;;;;;;;;6276743;28;20056;-81
2022/01/24 15:05:36;;;;;;;5.75;3.63;;;;;;;;;;6280604;28;20049;-80
2022/01/24 15:08:41;;;;;;;5.97;4.45;;;;;;;;;;6283290;28;20160;-77
2022/01/24 15:11:46;;;;;;;14.30;8.23;;;;;;;;;;6283872;28;20063;-79
2022/01/24 15:14:48;;;;;;;7.22;4.40;;;;;;;;;;6270289;28;20072;-79
2022/01/24 15:27:39;;;;;;;5.93;4.50;;;;;;;;;;6270675;28;20126;-79
2022/01/24 15:30:41;;;;;;;8.93;3.90;;;;;;;;;;6279615;28;20110;-81
2022/01/24 15:33:43;;;;;;;12.75;5.90;;;;;;;;;;6268865;28;20057;-82
2022/01/24 15:36:47;;;;;;;13.27;7.18;;;;;;;;;;6269400;28;20493;-80
2022/01/24 15:39:49;;;;;;;12.75;5.78;;;;;;;;;;6272000;28;20064;-79
2022/01/24 15:49:18;;;;;;;11.82;6.32;;;;;;;;;;6270921;28;20059;-79
2022/01/24 15:52:20;;;;;;;14.45;6.78;;;;;;;;;;6272245;28;20102;-82
2022/01/24 15:55:28;;;;;;;24.95;8.35;;;;;;;;;;6256255;28;20774;-79
2022/01/24 15:58:30;;;;;;;7.25;5.30;;;;;;;;;;6277173;28;20055;-81
2022/01/24 16:01:33;;;;;;;24.55;12.02;;;;;;;;;;6271902;28;20128;-80
2022/01/24 16:04:35;;;;;;;19.50;10.52;;;;;;;;;;6255315;28;20049;-80
2022/01/24 16:07:39;;;;;;;4.75;3.42;;;;;;;;;;6272136;28;20061;-81
2022/01/24 16:10:40;;;;;;;8.52;5.05;;;;;;;;;;6271959;28;20057;-80
2022/01/24 16:13:42;;;;;;;11.70;5.55;;;;;;;;;;6273105;28;20044;-81
2022/01/24 16:16:44;;;;;;;46.00;23.52;;;;;;;;;;6273447;28;20045;-81
2022/01/24 16:19:51;;;;;;;15.32;7.70;;;;;;;;;;6275201;28;20067;-82
2022/01/24 16:23:05;;;;;;;31.58;11.00;;;;;;;;;;6275314;28;20049;-81
2022/01/24 16:26:06;;;;;;;19.88;9.10;;;;;;;;;;6274628;28;20117;-81
2022/01/24 16:29:08;;;;;;;25.70;8.80;;;;;;;;;;6272725;28;20060;-82
2022/01/24 16:32:10;;;;;;;6.70;4.28;;;;;;;;;;6270648;28;20049;-82
2022/01/24 16:35:11;;;;;;;10.30;5.00;;;;;;;;;;6273977;28;20051;-80
2022/01/24 16:38:14;;;;;;;12.10;5.95;;;;;;;;;;6274783;28;20049;-82
2022/01/24 16:41:33;;;;;;;8.40;4.20;;;;;;;;;;6274106;28;20118;-80
2022/01/24 16:44:51;;;;;;;5.00;3.67;;;;;;;;;;6248146;28;20120;-81
2022/01/24 16:48:12;;;;;;;9.75;4.43;;;;;;;;;;6260457;28;20128;-80
2022/01/24 16:51:16;;;;;;;6.47;4.30;;;;;;;;;;6231391;28;20121;-82
2022/01/24 16:54:19;;;;;;;10.10;5.38;;;;;;;;;;6246797;28;20129;-81
2022/01/24 16:57:20;;;;;;;6.93;5.00;;;;;;;;;;6288241;28;20108;-82
2022/01/24 17:00:22;;;;;;;7.50;3.72;;;;;;;;;;6270369;28;20064;-83
2022/01/24 17:03:24;;;;;;;7.82;5.60;;;;;;;;;;6268306;28;20045;-82
2022/01/24 17:06:26;;;;;;;8.47;5.30;;;;;;;;;;6256297;28;20044;-81
2022/01/24 17:09:28;;;;;;;8.90;5.25;;;;;;;;;;6262493;28;20036;-80
2022/01/24 17:12:31;;;;;;;8.25;5.80;;;;;;;;;;6276382;28;20119;-81
2022/01/24 17:15:34;;;;;;;7.95;5.07;;;;;;;;;;6250538;28;20116;-81
2022/01/24 17:18:35;;;;;;;11.63;5.88;;;;;;;;;;6254752;28;20116;-81
2022/01/24 17:21:38;;;;;;;10.27;6.50;;;;;;;;;;6264705;28;20049;-81
2022/01/24 17:25:00;;;;;;;17.08;9.10;;;;;;;;;;6266376;28;20183;-80
2022/01/24 17:28:02;;;;;;;20.33;13.43;;;;;;;;;;6264159;28;20513;-82
2022/01/24 17:31:04;;;;;;;15.88;9.60;;;;;;;;;;6268982;28;20049;-81
2022/01/24 17:34:05;;;;;;;23.98;12.80;;;;;;;;;;6283005;28;20052;-79
2022/01/24 17:37:08;;;;;;;11.23;7.50;;;;;;;;;;6269477;28;20047;-80
2022/01/24 17:40:13;;;;;;;9.63;7.20;;;;;;;;;;6259057;28;20104;-79
2022/01/24 17:43:15;;;;;;;11.30;8.38;;;;;;;;;;6250756;28;20071;-81
2022/01/24 17:46:21;;;;;;;10.50;5.32;;;;;;;;;;6259387;28;20049;-78
2022/01/24 17:49:22;;;;;;;23.80;11.27;;;;;;;;;;6290805;28;20057;-81
2022/01/24 17:52:24;;;;;;;9.55;7.28;;;;;;;;;;6293066;28;20425;-79
2022/01/24 17:55:27;;;;;;;17.23;9.45;;;;;;;;;;6276223;28;20053;-81
2022/01/24 17:58:29;;;;;;;12.20;6.47;;;;;;;;;;6263084;28;20122;-79
2022/01/24 18:01:31;;;;;;;17.80;9.50;;;;;;;;;;6263529;28;20052;-80
2022/01/24 18:04:33;;;;;;;10.15;6.43;;;;;;;;;;6247130;28;20060;-82
2022/01/24 18:07:36;;;;;;;36.97;14.00;;;;;;;;;;6260710;28;20439;-79
2022/01/24 18:10:40;;;;;;;13.07;7.40;;;;;;;;;;6259322;28;20413;-79
2022/01/24 18:13:42;;;;;;;38.60;16.05;;;;;;;;;;6272415;28;20048;-81
2022/01/24 18:16:43;;;;;;;38.70;16.90;;;;;;;;;;6271319;28;20175;-79
2022/01/24 18:19:45;;;;;;;81.10;31.30;;;;;;;;;;6281926;28;20051;-81
2022/01/24 18:22:47;;;;;;;120.07;35.83;;;;;;;;;;6257318;28;20521;-81
2022/01/24 18:25:53;;;;;;;99.70;27.58;;;;;;;;;;6275496;28;20044;-80
2022/01/24 18:28:55;;;;;;;54.53;22.80;;;;;;;;;;6290962;28;20045;-82
2022/01/24 18:31:57;;;;;;;9.48;7.15;;;;;;;;;;6275283;28;20068;-81
2022/01/24 18:34:59;;;;;;;33.15;22.20;;;;;;;;;;6290445;28;20457;-79
2022/01/24 18:38:00;;;;;;;20.48;15.13;;;;;;;;;;6291182;28;20059;-82
2022/01/24 18:41:02;;;;;;;8.23;6.00;;;;;;;;;;6272996;28;20041;-81
2022/01/24 18:44:05;;;;;;;7.78;5.43;;;;;;;;;;6276762;28;20052;-82
2022/01/24 18:47:08;;;;;;;12.63;6.93;;;;;;;;;;6274493;28;20056;-82
2022/01/24 18:50:12;;;;;;;10.15;6.78;;;;;;;;;;6292394;28;20051;-79
2022/01/24 18:53:14;;;;;;;15.32;7.68;;;;;;;;;;6273834;28;20044;-79
2022/01/24 18:56:16;;;;;;;10.23;5.97;;;;;;;;;;6270986;28;20052;-81
2022/01/24 18:59:18;;;;;;;12.68;6.72;;;;;;;;;;6264079;28;20056;-81
2022/01/24 19:02:19;;;;;;;22.42;13.15;;;;;;;;;;6268331;28;20049;-80
2022/01/24 19:05:28;;;;;;;8.43;5.68;;;;;;;;;;6267572;28;20472;-82
2022/01/24 19:08:29;;;;;;;10.00;5.57;;;;;;;;;;6267719;28;20105;-80
2022/01/24 19:11:33;;;;;;;13.30;7.20;;;;;;;;;;6266077;28;20127;-79
2022/01/24 19:14:36;;;;;;;14.45;7.63;;;;;;;;;;6250683;28;20049;-78
2022/01/24 19:17:38;;;;;;;9.10;5.93;;;;;;;;;;6268316;28;20049;-80
2022/01/24 19:24:02;;;;;;;12.57;8.05;;;;;;;;;;6246144;28;20049;-80
2022/01/24 19:27:04;;;;;;;9.77;6.20;;;;;;;;;;6262459;28;20048;-81
2022/01/24 19:30:07;;;;;;;10.75;6.45;;;;;;;;;;6245298;28;20045;-80
2022/01/24 19:33:09;;;;;;;11.63;7.85;;;;;;;;;;6259732;28;20068;-80
2022/01/24 19:36:13;;;;;;;12.10;7.20;;;;;;;;;;6270892;28;20051;-80
2022/01/24 19:39:15;;;;;;;12.63;7.78;;;;;;;;;;6285210;28;20061;-80
2022/01/24 19:42:17;;;;;;;11.52;6.65;;;;;;;;;;6281720;28;20199;-80
2022/01/24 19:45:26;;;;;;;10.77;6.78;;;;;;;;;;6282571;28;20048;-82
2022/01/24 19:48:28;;;;;;;10.13;6.63;;;;;;;;;;6247714;28;20100;-79
2022/01/24 19:51:30;;;;;;;12.35;7.22;;;;;;;;;;6266511;28;20083;-82
2022/01/24 19:54:34;;;;;;;21.05;10.02;;;;;;;;;;6265729;28;20052;-79
2022/01/24 19:57:43;;;;;;;13.93;7.03;;;;;;;;;;6264113;28;20044;-78
2022/01/24 20:00:51;;;;;;;13.02;7.40;;;;;;;;;;6264146;28;20045;-80
2022/01/24 20:03:56;;;;;;;14.02;9.15;;;;;;;;;;6264463;28;20064;-79
2022/01/24 20:06:58;;;;;;;18.15;10.15;;;;;;;;;;6266420;28;20052;-79
2022/01/24 20:10:00;;;;;;;19.75;9.38;;;;;;;;;;6281806;28;20365;-81
2022/01/24 20:13:02;;;;;;;14.20;7.68;;;;;;;;;;6264991;28;20703;-77
2022/01/24 20:16:09;;;;;;;14.05;7.45;;;;;;;;;;6266456;28;20041;-80
2022/01/24 20:19:12;;;;;;;10.68;6.78;;;;;;;;;;6274501;28;20096;-81
2022/01/24 20:22:13;;;;;;;14.93;8.88;;;;;;;;;;6268835;28;20052;-80
2022/01/24 20:25:16;;;;;;;23.20;18.20;;;;;;;;;;6266726;28;20067;-79
2022/01/24 20:28:17;;;;;;;16.90;11.90;;;;;;;;;;6267746;28;20060;-80
2022/01/24 20:31:19;;;;;;;10.73;7.00;;;;;;;;;;6268951;28;20150;-79
2022/01/24 20:34:21;;;;;;;16.55;10.82;;;;;;;;;;6265354;28;20706;-79
2022/01/24 20:37:25;;;;;;;14.73;8.18;;;;;;;;;;6269707;28;20149;-81
2022/01/24 20:40:27;;;;;;;15.02;8.57;;;;;;;;;;6248348;28;20103;-80